sensor_id;sensor_type;location;lat;lon;timestamp;P1;durP1;ratioP1;P2;durP2;ratioP2
51616;SDS011;37697;52.588;13.394;2022-11-20T00:03:54;12.70;;;7.90;;
51616;SDS011;37697;52.588;13.394;2022-11-20T00:08:58;15.60;;;10.43;;
51616;SDS011;37697;52.588;13.394;2022-11-20T00:14:01;14.17;;;9.17;;
51616;SDS011;37697;52.588;13.394;2022-11-20T00:19:03;13.90;;;9.50;;
51616;SDS011;37697;52.588;13.394;2022-11-20T00:24:03;13.17;;;8.97;;
51616;SDS011;37697;52.588;13.394;2022-11-20T00:29:05;11.50;;;8.30;;
51616;SDS011;37697;52.588;13.394;2022-11-20T00:34:06;13.07;;;8.30;;
51616;SDS011;37697;52.588;13.394;2022-11-20T00:39:07;13.67;;;8.20;;
51616;SDS011;37697;52.588;13.394;2022-11-20T00:44:08;15.57;;;10.23;;
51616;SDS011;37697;52.588;13.394;2022-11-20T00:49:08;12.70;;;8.75;;
51616;SDS011;37697;52.588;13.394;2022-11-20T00:54:09;13.37;;;8.17;;
51616;SDS011;37697;52.588;13.394;2022-11-20T00:59:10;16.12;;;10.08;;
51616;SDS011;37697;52.588;13.394;2022-11-20T01:04:11;13.50;;;9.33;;
51616;SDS011;37697;52.588;13.394;2022-11-20T01:09:12;18.30;;;10.10;;
51616;SDS011;37697;52.588;13.394;2022-11-20T01:14:16;12.17;;;7.50;;
51616;SDS011;37697;52.588;13.394;2022-11-20T01:19:20;15.83;;;9.37;;
51616;SDS011;37697;52.588;13.394;2022-11-20T01:24:23;12.67;;;8.67;;
51616;SDS011;37697;52.588;13.394;2022-11-20T01:29:23;13.30;;;8.93;;
51616;SDS011;37697;52.588;13.394;2022-11-20T01:34:25;12.90;;;8.50;;
51616;SDS011;37697;52.588;13.394;2022-11-20T01:39:26;14.33;;;10.20;;
51616;SDS011;37697;52.588;13.394;2022-11-20T01:49:58;13.57;;;7.77;;
51616;SDS011;37697;52.588;13.394;2022-11-20T01:55:15;13.60;;;8.23;;
51616;SDS011;37697;52.588;13.394;2022-11-20T02:00:23;19.00;;;11.83;;
51616;SDS011;37697;52.588;13.394;2022-11-20T02:05:28;13.73;;;9.17;;
51616;SDS011;37697;52.588;13.394;2022-11-20T02:10:35;18.15;;;10.38;;
51616;SDS011;37697;52.588;13.394;2022-11-20T02:15:36;16.37;;;9.90;;
51616;SDS011;37697;52.588;13.394;2022-11-20T02:20:36;14.17;;;9.13;;
51616;SDS011;37697;52.588;13.394;2022-11-20T02:25:39;10.90;;;7.23;;
51616;SDS011;37697;52.588;13.394;2022-11-20T02:30:41;15.17;;;9.80;;
51616;SDS011;37697;52.588;13.394;2022-11-20T02:35:43;16.07;;;9.53;;
51616;SDS011;37697;52.588;13.394;2022-11-20T02:40:46;15.17;;;9.53;;
51616;SDS011;37697;52.588;13.394;2022-11-20T02:45:47;14.25;;;9.98;;
51616;SDS011;37697;52.588;13.394;2022-11-20T02:50:47;13.70;;;8.87;;
51616;SDS011;37697;52.588;13.394;2022-11-20T02:55:48;17.60;;;10.00;;
51616;SDS011;37697;52.588;13.394;2022-11-20T03:00:49;9.25;;;6.15;;
51616;SDS011;37697;52.588;13.394;2022-11-20T03:05:49;13.53;;;8.03;;
51616;SDS011;37697;52.588;13.394;2022-11-20T03:10:50;16.55;;;10.63;;
51616;SDS011;37697;52.588;13.394;2022-11-20T03:15:52;15.48;;;9.60;;
51616;SDS011;37697;52.588;13.394;2022-11-20T03:20:56;13.70;;;10.20;;
51616;SDS011;37697;52.588;13.394;2022-11-20T03:31:33;16.17;;;11.20;;
51616;SDS011;37697;52.588;13.394;2022-11-20T03:36:37;15.20;;;10.83;;
51616;SDS011;37697;52.588;13.394;2022-11-20T03:41:40;14.97;;;10.33;;
51616;SDS011;37697;52.588;13.394;2022-11-20T03:46:42;17.27;;;10.43;;
51616;SDS011;37697;52.588;13.394;2022-11-20T03:51:43;17.20;;;10.97;;
51616;SDS011;37697;52.588;13.394;2022-11-20T03:56:44;14.60;;;9.83;;
51616;SDS011;37697;52.588;13.394;2022-11-20T04:01:44;13.77;;;9.60;;
51616;SDS011;37697;52.588;13.394;2022-11-20T04:06:45;15.83;;;10.83;;
51616;SDS011;37697;52.588;13.394;2022-11-20T04:11:46;16.13;;;10.97;;
51616;SDS011;37697;52.588;13.394;2022-11-20T04:16:46;17.77;;;11.10;;
51616;SDS011;37697;52.588;13.394;2022-11-20T04:21:47;14.33;;;9.73;;
51616;SDS011;37697;52.588;13.394;2022-11-20T04:26:48;13.53;;;9.77;;
51616;SDS011;37697;52.588;13.394;2022-11-20T04:31:48;18.10;;;12.40;;
51616;SDS011;37697;52.588;13.394;2022-11-20T04:36:49;16.23;;;11.03;;
51616;SDS011;37697;52.588;13.394;2022-11-20T04:41:50;17.37;;;11.20;;
51616;SDS011;37697;52.588;13.394;2022-11-20T04:46:56;18.10;;;12.00;;
51616;SDS011;37697;52.588;13.394;2022-11-20T04:51:57;14.63;;;10.10;;
51616;SDS011;37697;52.588;13.394;2022-11-20T04:56:58;19.80;;;13.25;;
51616;SDS011;37697;52.588;13.394;2022-11-20T05:01:59;14.33;;;9.00;;
51616;SDS011;37697;52.588;13.394;2022-11-20T05:06:59;13.37;;;8.80;;
51616;SDS011;37697;52.588;13.394;2022-11-20T05:12:00;17.57;;;11.43;;
51616;SDS011;37697;52.588;13.394;2022-11-20T05:17:01;21.17;;;12.83;;
51616;SDS011;37697;52.588;13.394;2022-11-20T05:22:01;17.10;;;11.00;;
51616;SDS011;37697;52.588;13.394;2022-11-20T05:27:02;17.53;;;12.13;;
51616;SDS011;37697;52.588;13.394;2022-11-20T05:32:03;16.57;;;11.20;;
51616;SDS011;37697;52.588;13.394;2022-11-20T05:37:06;17.90;;;11.63;;
51616;SDS011;37697;52.588;13.394;2022-11-20T05:42:06;15.80;;;10.10;;
51616;SDS011;37697;52.588;13.394;2022-11-20T05:47:26;15.20;;;10.37;;
51616;SDS011;37697;52.588;13.394;2022-11-20T05:52:28;17.42;;;11.70;;
51616;SDS011;37697;52.588;13.394;2022-11-20T05:57:30;11.88;;;7.72;;
51616;SDS011;37697;52.588;13.394;2022-11-20T06:07:34;17.90;;;11.83;;
51616;SDS011;37697;52.588;13.394;2022-11-20T06:12:35;14.13;;;9.67;;
51616;SDS011;37697;52.588;13.394;2022-11-20T06:17:36;16.10;;;10.57;;
51616;SDS011;37697;52.588;13.394;2022-11-20T06:22:37;17.07;;;11.23;;
51616;SDS011;37697;52.588;13.394;2022-11-20T06:27:37;17.27;;;11.63;;
51616;SDS011;37697;52.588;13.394;2022-11-20T06:32:38;18.70;;;11.33;;
51616;SDS011;37697;52.588;13.394;2022-11-20T06:37:39;15.80;;;10.35;;
51616;SDS011;37697;52.588;13.394;2022-11-20T06:42:39;16.53;;;10.30;;
51616;SDS011;37697;52.588;13.394;2022-11-20T06:47:40;16.67;;;11.50;;
51616;SDS011;37697;52.588;13.394;2022-11-20T06:52:41;17.53;;;10.87;;
51616;SDS011;37697;52.588;13.394;2022-11-20T06:57:41;20.67;;;12.37;;
51616;SDS011;37697;52.588;13.394;2022-11-20T07:02:42;20.13;;;11.90;;
51616;SDS011;37697;52.588;13.394;2022-11-20T07:07:43;19.73;;;11.90;;
51616;SDS011;37697;52.588;13.394;2022-11-20T07:12:48;19.80;;;11.68;;
51616;SDS011;37697;52.588;13.394;2022-11-20T07:17:51;18.10;;;10.93;;
51616;SDS011;37697;52.588;13.394;2022-11-20T07:22:55;15.50;;;9.60;;
51616;SDS011;37697;52.588;13.394;2022-11-20T07:27:58;19.03;;;12.70;;
51616;SDS011;37697;52.588;13.394;2022-11-20T07:32:59;15.93;;;9.10;;
51616;SDS011;37697;52.588;13.394;2022-11-20T07:38:00;19.80;;;12.28;;
51616;SDS011;37697;52.588;13.394;2022-11-20T07:43:01;12.27;;;8.97;;
51616;SDS011;37697;52.588;13.394;2022-11-20T07:48:01;19.37;;;12.20;;
51616;SDS011;37697;52.588;13.394;2022-11-20T07:53:03;20.70;;;11.97;;
51616;SDS011;37697;52.588;13.394;2022-11-20T07:58:05;20.23;;;13.10;;
51616;SDS011;37697;52.588;13.394;2022-11-20T08:03:06;17.47;;;12.23;;
51616;SDS011;37697;52.588;13.394;2022-11-20T08:08:07;19.82;;;11.30;;
51616;SDS011;37697;52.588;13.394;2022-11-20T08:13:08;16.53;;;11.67;;
51616;SDS011;37697;52.588;13.394;2022-11-20T08:18:27;18.47;;;11.73;;
51616;SDS011;37697;52.588;13.394;2022-11-20T08:23:28;19.90;;;12.73;;
51616;SDS011;37697;52.588;13.394;2022-11-20T08:28:29;20.60;;;13.93;;
51616;SDS011;37697;52.588;13.394;2022-11-20T08:33:30;19.07;;;12.80;;
51616;SDS011;37697;52.588;13.394;2022-11-20T08:38:32;18.87;;;12.80;;
51616;SDS011;37697;52.588;13.394;2022-11-20T08:43:33;20.60;;;13.60;;
51616;SDS011;37697;52.588;13.394;2022-11-20T08:48:34;16.93;;;11.53;;
51616;SDS011;37697;52.588;13.394;2022-11-20T08:53:35;18.00;;;11.80;;
51616;SDS011;37697;52.588;13.394;2022-11-20T08:58:35;19.40;;;13.30;;
51616;SDS011;37697;52.588;13.394;2022-11-20T09:03:37;16.73;;;10.63;;
51616;SDS011;37697;52.588;13.394;2022-11-20T09:08:38;18.62;;;12.50;;
51616;SDS011;37697;52.588;13.394;2022-11-20T09:13:39;20.67;;;13.30;;
51616;SDS011;37697;52.588;13.394;2022-11-20T09:18:40;14.55;;;8.60;;
51616;SDS011;37697;52.588;13.394;2022-11-20T09:23:41;19.30;;;12.80;;
51616;SDS011;37697;52.588;13.394;2022-11-20T09:28:42;21.37;;;14.30;;
51616;SDS011;37697;52.588;13.394;2022-11-20T09:33:42;19.60;;;13.10;;
51616;SDS011;37697;52.588;13.394;2022-11-20T09:38:43;18.70;;;12.30;;
51616;SDS011;37697;52.588;13.394;2022-11-20T09:43:47;20.30;;;13.67;;
51616;SDS011;37697;52.588;13.394;2022-11-20T09:54:18;20.40;;;13.23;;
51616;SDS011;37697;52.588;13.394;2022-11-20T10:04:48;16.35;;;10.75;;
51616;SDS011;37697;52.588;13.394;2022-11-20T10:09:58;19.02;;;11.78;;
51616;SDS011;37697;52.588;13.394;2022-11-20T10:26:00;18.87;;;12.68;;
51616;SDS011;37697;52.588;13.394;2022-11-20T10:31:06;17.48;;;10.93;;
51616;SDS011;37697;52.588;13.394;2022-11-20T10:36:21;17.92;;;12.35;;
51616;SDS011;37697;52.588;13.394;2022-11-20T10:41:29;16.25;;;10.65;;
51616;SDS011;37697;52.588;13.394;2022-11-20T10:46:40;17.77;;;11.35;;
51616;SDS011;37697;52.588;13.394;2022-11-20T10:57:40;14.00;;;9.70;;
51616;SDS011;37697;52.588;13.394;2022-11-20T11:02:54;15.53;;;10.93;;
51616;SDS011;37697;52.588;13.394;2022-11-20T11:07:57;17.30;;;10.48;;
51616;SDS011;37697;52.588;13.394;2022-11-20T11:12:59;16.62;;;10.15;;
51616;SDS011;37697;52.588;13.394;2022-11-20T11:18:00;13.00;;;8.67;;
51616;SDS011;37697;52.588;13.394;2022-11-20T11:23:01;16.63;;;10.30;;
51616;SDS011;37697;52.588;13.394;2022-11-20T11:28:24;14.28;;;9.88;;
51616;SDS011;37697;52.588;13.394;2022-11-20T11:33:21;14.33;;;9.98;;
51616;SDS011;37697;52.588;13.394;2022-11-20T11:38:38;14.15;;;10.35;;
51616;SDS011;37697;52.588;13.394;2022-11-20T11:43:49;14.38;;;9.50;;
51616;SDS011;37697;52.588;13.394;2022-11-20T11:49:19;16.02;;;9.48;;
51616;SDS011;37697;52.588;13.394;2022-11-20T11:54:20;12.05;;;7.55;;
51616;SDS011;37697;52.588;13.394;2022-11-20T12:10:37;15.30;;;10.05;;
51616;SDS011;37697;52.588;13.394;2022-11-20T12:15:43;13.58;;;9.55;;
51616;SDS011;37697;52.588;13.394;2022-11-20T12:37:48;11.50;;;8.25;;
51616;SDS011;37697;52.588;13.394;2022-11-20T12:43:14;13.18;;;8.38;;
51616;SDS011;37697;52.588;13.394;2022-11-20T12:48:42;12.57;;;8.37;;
51616;SDS011;37697;52.588;13.394;2022-11-20T12:54:18;14.03;;;9.23;;
51616;SDS011;37697;52.588;13.394;2022-11-20T13:04:44;13.13;;;8.08;;
51616;SDS011;37697;52.588;13.394;2022-11-20T13:09:54;10.85;;;6.78;;
51616;SDS011;37697;52.588;13.394;2022-11-20T13:15:08;11.18;;;6.75;;
51616;SDS011;37697;52.588;13.394;2022-11-20T13:20:30;14.30;;;8.80;;
51616;SDS011;37697;52.588;13.394;2022-11-20T13:25:35;13.83;;;8.25;;
51616;SDS011;37697;52.588;13.394;2022-11-20T13:30:48;10.53;;;7.78;;
51616;SDS011;37697;52.588;13.394;2022-11-20T13:35:55;13.80;;;8.60;;
51616;SDS011;37697;52.588;13.394;2022-11-20T13:41:00;12.03;;;7.62;;
51616;SDS011;37697;52.588;13.394;2022-11-20T13:46:06;12.07;;;7.28;;
51616;SDS011;37697;52.588;13.394;2022-11-20T13:51:11;13.70;;;9.05;;
51616;SDS011;37697;52.588;13.394;2022-11-20T14:02:11;11.48;;;7.55;;
51616;SDS011;37697;52.588;13.394;2022-11-20T14:07:15;13.25;;;8.43;;
51616;SDS011;37697;52.588;13.394;2022-11-20T14:12:21;13.38;;;8.58;;
51616;SDS011;37697;52.588;13.394;2022-11-20T14:17:34;13.25;;;8.70;;
51616;SDS011;37697;52.588;13.394;2022-11-20T14:22:36;12.70;;;8.60;;
51616;SDS011;37697;52.588;13.394;2022-11-20T14:27:37;10.97;;;6.93;;
51616;SDS011;37697;52.588;13.394;2022-11-20T14:32:42;14.53;;;9.40;;
51616;SDS011;37697;52.588;13.394;2022-11-20T14:37:44;13.32;;;8.10;;
51616;SDS011;37697;52.588;13.394;2022-11-20T14:42:45;10.28;;;6.80;;
51616;SDS011;37697;52.588;13.394;2022-11-20T14:47:46;11.57;;;7.97;;
51616;SDS011;37697;52.588;13.394;2022-11-20T14:52:52;13.73;;;8.73;;
51616;SDS011;37697;52.588;13.394;2022-11-20T14:57:59;15.00;;;8.33;;
51616;SDS011;37697;52.588;13.394;2022-11-20T15:03:21;12.93;;;8.87;;
51616;SDS011;37697;52.588;13.394;2022-11-20T15:08:22;13.50;;;8.07;;
51616;SDS011;37697;52.588;13.394;2022-11-20T15:13:24;10.50;;;7.13;;
51616;SDS011;37697;52.588;13.394;2022-11-20T15:18:30;9.30;;;6.20;;
51616;SDS011;37697;52.588;13.394;2022-11-20T15:23:35;15.58;;;9.05;;
51616;SDS011;37697;52.588;13.394;2022-11-20T15:28:42;13.80;;;8.90;;
51616;SDS011;37697;52.588;13.394;2022-11-20T15:33:48;14.58;;;8.95;;
51616;SDS011;37697;52.588;13.394;2022-11-20T15:38:49;15.78;;;9.48;;
51616;SDS011;37697;52.588;13.394;2022-11-20T15:43:50;14.20;;;8.90;;
51616;SDS011;37697;52.588;13.394;2022-11-20T15:48:51;14.77;;;9.17;;
51616;SDS011;37697;52.588;13.394;2022-11-20T15:53:57;12.63;;;8.13;;
51616;SDS011;37697;52.588;13.394;2022-11-20T15:58:58;14.20;;;8.95;;
51616;SDS011;37697;52.588;13.394;2022-11-20T16:03:59;11.27;;;8.23;;
51616;SDS011;37697;52.588;13.394;2022-11-20T16:09:01;12.15;;;8.28;;
51616;SDS011;37697;52.588;13.394;2022-11-20T16:14:03;11.30;;;7.27;;
51616;SDS011;37697;52.588;13.394;2022-11-20T16:19:23;17.63;;;11.17;;
51616;SDS011;37697;52.588;13.394;2022-11-20T16:24:24;16.50;;;10.07;;
51616;SDS011;37697;52.588;13.394;2022-11-20T16:29:24;16.30;;;9.53;;
51616;SDS011;37697;52.588;13.394;2022-11-20T16:34:25;15.60;;;8.90;;
51616;SDS011;37697;52.588;13.394;2022-11-20T16:39:25;13.37;;;8.57;;
51616;SDS011;37697;52.588;13.394;2022-11-20T16:44:26;11.30;;;8.13;;
51616;SDS011;37697;52.588;13.394;2022-11-20T16:49:27;12.43;;;8.13;;
51616;SDS011;37697;52.588;13.394;2022-11-20T16:54:28;13.33;;;9.07;;
51616;SDS011;37697;52.588;13.394;2022-11-20T16:59:28;13.13;;;7.83;;
51616;SDS011;37697;52.588;13.394;2022-11-20T17:04:29;11.00;;;6.73;;
51616;SDS011;37697;52.588;13.394;2022-11-20T17:09:30;13.53;;;8.27;;
51616;SDS011;37697;52.588;13.394;2022-11-20T17:14:30;12.07;;;7.63;;
51616;SDS011;37697;52.588;13.394;2022-11-20T17:19:31;10.67;;;7.00;;
51616;SDS011;37697;52.588;13.394;2022-11-20T17:24:32;12.03;;;8.05;;
51616;SDS011;37697;52.588;13.394;2022-11-20T17:29:33;14.83;;;7.60;;
51616;SDS011;37697;52.588;13.394;2022-11-20T17:34:33;11.00;;;7.03;;
51616;SDS011;37697;52.588;13.394;2022-11-20T17:39:34;13.38;;;8.23;;
51616;SDS011;37697;52.588;13.394;2022-11-20T17:44:35;13.23;;;8.10;;
51616;SDS011;37697;52.588;13.394;2022-11-20T17:49:36;11.07;;;7.60;;
51616;SDS011;37697;52.588;13.394;2022-11-20T17:54:37;10.50;;;7.43;;
51616;SDS011;37697;52.588;13.394;2022-11-20T17:59:37;10.50;;;6.77;;
51616;SDS011;37697;52.588;13.394;2022-11-20T18:04:39;13.40;;;7.97;;
51616;SDS011;37697;52.588;13.394;2022-11-20T18:09:40;13.20;;;8.88;;
51616;SDS011;37697;52.588;13.394;2022-11-20T18:14:40;12.40;;;8.93;;
51616;SDS011;37697;52.588;13.394;2022-11-20T18:24:45;13.98;;;7.95;;
51616;SDS011;37697;52.588;13.394;2022-11-20T18:29:46;12.93;;;7.97;;
51616;SDS011;37697;52.588;13.394;2022-11-20T18:34:51;13.33;;;8.80;;
51616;SDS011;37697;52.588;13.394;2022-11-20T18:39:51;12.53;;;8.60;;
51616;SDS011;37697;52.588;13.394;2022-11-20T18:44:52;15.90;;;9.77;;
51616;SDS011;37697;52.588;13.394;2022-11-20T18:49:54;14.30;;;9.60;;
51616;SDS011;37697;52.588;13.394;2022-11-20T18:54:58;12.63;;;8.30;;
51616;SDS011;37697;52.588;13.394;2022-11-20T19:00:04;12.78;;;7.75;;
51616;SDS011;37697;52.588;13.394;2022-11-20T19:05:08;14.63;;;8.77;;
51616;SDS011;37697;52.588;13.394;2022-11-20T19:10:16;12.03;;;8.03;;
51616;SDS011;37697;52.588;13.394;2022-11-20T19:15:19;14.00;;;8.05;;
51616;SDS011;37697;52.588;13.394;2022-11-20T19:20:20;12.10;;;7.93;;
51616;SDS011;37697;52.588;13.394;2022-11-20T19:25:21;13.30;;;8.67;;
51616;SDS011;37697;52.588;13.394;2022-11-20T19:30:21;14.33;;;8.33;;
51616;SDS011;37697;52.588;13.394;2022-11-20T19:35:23;13.13;;;9.20;;
51616;SDS011;37697;52.588;13.394;2022-11-20T19:40:24;16.55;;;9.20;;
51616;SDS011;37697;52.588;13.394;2022-11-20T19:45:25;12.30;;;7.03;;
51616;SDS011;37697;52.588;13.394;2022-11-20T19:50:27;13.20;;;8.98;;
51616;SDS011;37697;52.588;13.394;2022-11-20T19:55:27;12.07;;;7.63;;
51616;SDS011;37697;52.588;13.394;2022-11-20T20:00:28;13.10;;;9.53;;
51616;SDS011;37697;52.588;13.394;2022-11-20T20:05:30;16.30;;;10.30;;
51616;SDS011;37697;52.588;13.394;2022-11-20T20:10:33;12.27;;;7.70;;
51616;SDS011;37697;52.588;13.394;2022-11-20T20:15:36;13.47;;;8.90;;
51616;SDS011;37697;52.588;13.394;2022-11-20T20:20:40;14.87;;;9.65;;
51616;SDS011;37697;52.588;13.394;2022-11-20T20:25:40;11.77;;;8.63;;
51616;SDS011;37697;52.588;13.394;2022-11-20T20:30:43;11.47;;;8.10;;
51616;SDS011;37697;52.588;13.394;2022-11-20T20:35:43;12.33;;;8.70;;
51616;SDS011;37697;52.588;13.394;2022-11-20T20:40:47;12.77;;;8.50;;
51616;SDS011;37697;52.588;13.394;2022-11-20T20:45:51;12.03;;;7.17;;
51616;SDS011;37697;52.588;13.394;2022-11-20T20:50:57;13.90;;;9.30;;
51616;SDS011;37697;52.588;13.394;2022-11-20T20:55:58;13.22;;;8.05;;
51616;SDS011;37697;52.588;13.394;2022-11-20T21:01:02;12.23;;;8.70;;
51616;SDS011;37697;52.588;13.394;2022-11-20T21:06:12;13.20;;;8.87;;
51616;SDS011;37697;52.588;13.394;2022-11-20T21:11:14;13.50;;;8.68;;
51616;SDS011;37697;52.588;13.394;2022-11-20T21:16:19;12.57;;;8.13;;
51616;SDS011;37697;52.588;13.394;2022-11-20T21:21:21;12.67;;;8.77;;
51616;SDS011;37697;52.588;13.394;2022-11-20T21:26:40;12.80;;;8.70;;
51616;SDS011;37697;52.588;13.394;2022-11-20T21:31:41;12.87;;;9.10;;
51616;SDS011;37697;52.588;13.394;2022-11-20T21:36:42;13.57;;;9.27;;
51616;SDS011;37697;52.588;13.394;2022-11-20T21:41:43;13.90;;;9.30;;
51616;SDS011;37697;52.588;13.394;2022-11-20T21:46:44;11.97;;;8.53;;
51616;SDS011;37697;52.588;13.394;2022-11-20T21:51:45;14.65;;;9.90;;
51616;SDS011;37697;52.588;13.394;2022-11-20T21:56:46;15.60;;;9.70;;
51616;SDS011;37697;52.588;13.394;2022-11-20T22:01:46;15.03;;;9.83;;
51616;SDS011;37697;52.588;13.394;2022-11-20T22:06:47;14.40;;;9.67;;
51616;SDS011;37697;52.588;13.394;2022-11-20T22:11:48;15.23;;;9.77;;
51616;SDS011;37697;52.588;13.394;2022-11-20T22:16:49;15.05;;;9.30;;
51616;SDS011;37697;52.588;13.394;2022-11-20T22:21:52;15.00;;;9.80;;
51616;SDS011;37697;52.588;13.394;2022-11-20T22:26:53;14.00;;;9.03;;
51616;SDS011;37697;52.588;13.394;2022-11-20T22:31:54;13.03;;;7.93;;
51616;SDS011;37697;52.588;13.394;2022-11-20T22:36:54;11.83;;;8.43;;
51616;SDS011;37697;52.588;13.394;2022-11-20T22:41:55;10.77;;;7.87;;
51616;SDS011;37697;52.588;13.394;2022-11-20T22:46:56;15.00;;;9.47;;
51616;SDS011;37697;52.588;13.394;2022-11-20T22:51:56;12.85;;;8.98;;
51616;SDS011;37697;52.588;13.394;2022-11-20T22:56:57;13.83;;;9.20;;
51616;SDS011;37697;52.588;13.394;2022-11-20T23:01:58;13.78;;;8.90;;
51616;SDS011;37697;52.588;13.394;2022-11-20T23:06:58;13.70;;;8.77;;
51616;SDS011;37697;52.588;13.394;2022-11-20T23:11:59;13.67;;;9.10;;
51616;SDS011;37697;52.588;13.394;2022-11-20T23:17:00;12.77;;;8.03;;
51616;SDS011;37697;52.588;13.394;2022-11-20T23:22:00;13.57;;;8.80;;
51616;SDS011;37697;52.588;13.394;2022-11-20T23:27:01;16.70;;;9.80;;
51616;SDS011;37697;52.588;13.394;2022-11-20T23:32:02;17.77;;;10.53;;
51616;SDS011;37697;52.588;13.394;2022-11-20T23:37:03;16.17;;;9.90;;
51616;SDS011;37697;52.588;13.394;2022-11-20T23:42:03;15.67;;;9.80;;
51616;SDS011;37697;52.588;13.394;2022-11-20T23:47:04;16.87;;;10.27;;
51616;SDS011;37697;52.588;13.394;2022-11-20T23:52:05;17.17;;;10.23;;
51616;SDS011;37697;52.588;13.394;2022-11-20T23:57:06;16.87;;;10.57;;
